createdAt,value
2019-01-17T00:04:53.683Z,99487.12
2019-01-17T00:10:29.892Z,99493.77
2019-01-17T00:23:55.889Z,99480.61
2019-01-17T00:26:43.194Z,99468.27
2019-01-17T00:32:05.779Z,99458.42
2019-01-17T00:34:53.092Z,99461.76
2019-01-17T00:40:50.266Z,99460.16
2019-01-17T00:49:01.637Z,99451.94
2019-01-17T00:51:48.957Z,99442.34
2019-01-17T00:54:36.296Z,99450.81
2019-01-17T00:57:23.620Z,99444.73
2019-01-17T01:00:10.957Z,99444.27
2019-01-17T01:02:58.256Z,99449.44
2019-01-17T01:05:45.577Z,99449.75
2019-01-17T01:11:21.760Z,99450.69
2019-01-17T01:19:58.575Z,99448.75
2019-01-17T01:28:00.573Z,99458.47
2019-01-17T01:30:47.907Z,99458.47
2019-01-17T01:36:10.435Z,99453.45
2019-01-17T01:38:57.776Z,99458.62
2019-01-17T01:41:45.108Z,99459.98
2019-01-17T01:44:32.429Z,99471.27
2019-01-17T01:54:54.405Z,99467.97
2019-01-17T01:57:22.610Z,99471.98
2019-01-17T01:59:50.815Z,99462.75
2019-01-17T02:02:19.005Z,99456.67
2019-01-17T02:04:47.206Z,99458.05
2019-01-17T02:07:15.397Z,99448.00
2019-01-17T02:09:43.600Z,99443.22
2019-01-17T02:12:11.795Z,99439.00
2019-01-17T02:20:48.112Z,99429.86
2019-01-17T02:23:35.420Z,99434.98
2019-01-17T02:26:03.601Z,99435.09
2019-01-17T02:28:31.803Z,99444.23
2019-01-17T02:33:47.221Z,99453.48
2019-01-17T02:36:15.408Z,99454.64
2019-01-17T02:41:16.990Z,99455.56
2019-01-17T02:43:45.176Z,99470.19
2019-01-17T02:46:32.720Z,99466.29
2019-01-17T02:49:00.911Z,99472.94
2019-01-17T02:51:29.094Z,99486.75
2019-01-17T02:53:57.293Z,99481.36
2019-01-17T02:56:25.467Z,99475.09
2019-01-17T02:58:53.658Z,99479.98
2019-01-17T03:01:21.836Z,99482.41
2019-01-17T03:03:50.027Z,99482.98
2019-01-17T03:06:18.210Z,99475.87
2019-01-17T03:08:46.414Z,99468.55
2019-01-17T03:11:14.577Z,99463.86
2019-01-17T03:13:42.791Z,99468.06
2019-01-17T03:16:10.975Z,99459.18
2019-01-17T03:18:39.150Z,99452.79
2019-01-17T03:21:07.343Z,99463.86
2019-01-17T03:23:35.530Z,99462.48
2019-01-17T03:26:03.721Z,99455.16
2019-01-17T03:28:31.900Z,99466.48
2019-01-17T03:31:00.092Z,99475.83
2019-01-17T03:33:28.271Z,99467.84
2019-01-17T03:35:56.466Z,99468.20
2019-01-17T03:38:24.649Z,99462.34
2019-01-17T03:40:52.838Z,99464.06
2019-01-17T03:43:21.015Z,99481.54
2019-01-17T03:45:49.211Z,99480.27
2019-01-17T03:48:17.383Z,99466.66
2019-01-17T03:51:04.937Z,99465.06
2019-01-17T03:53:33.125Z,99465.97
2019-01-17T03:56:01.323Z,99473.05
2019-01-17T03:58:48.879Z,99479.12
2019-01-17T04:01:17.089Z,99475.31
2019-01-17T04:03:45.251Z,99485.73
2019-01-17T04:08:47.301Z,99494.77
2019-01-17T04:11:15.492Z,99498.53
2019-01-17T04:13:43.678Z,99502.55
2019-01-17T04:16:11.869Z,99501.64
2019-01-17T04:18:59.169Z,99499.71
2019-01-17T04:21:27.356Z,99493.78
2019-01-17T04:24:14.653Z,99497.09
2019-01-17T04:26:42.840Z,99500.73
2019-01-17T04:29:11.020Z,99493.41
2019-01-17T04:31:39.211Z,99493.98
2019-01-17T04:34:07.394Z,99494.54
2019-01-17T04:36:54.950Z,99489.86
2019-01-17T04:39:23.130Z,99489.64
2019-01-17T04:41:51.326Z,99481.73
2019-01-17T04:47:13.205Z,99486.19
2019-01-17T04:49:41.389Z,99482.55
2019-01-17T04:52:09.583Z,99490.55
2019-01-17T04:54:38.553Z,99489.49
2019-01-17T04:57:07.676Z,99484.81
2019-01-17T04:59:35.858Z,99497.97
2019-01-17T05:02:04.053Z,99487.00
2019-01-17T05:04:32.244Z,99485.41
2019-01-17T05:07:00.425Z,99495.72
2019-01-17T05:09:28.604Z,99489.23
2019-01-17T05:11:56.794Z,99479.97
2019-01-17T05:14:24.985Z,99490.94
2019-01-17T05:16:54.373Z,99489.10
2019-01-17T05:19:23.073Z,99494.72
2019-01-17T05:22:10.696Z,99502.58
2019-01-17T05:24:38.881Z,99505.97
2019-01-17T05:27:07.074Z,99497.53
2019-01-17T05:29:35.257Z,99500.61
2019-01-17T05:32:03.436Z,99504.38
2019-01-17T05:34:38.975Z,99501.64
2019-01-17T05:37:01.531Z,99504.60
2019-01-17T05:39:29.720Z,99492.52
2019-01-17T05:41:57.903Z,99489.52
2019-01-17T05:44:26.103Z,99489.42
2019-01-17T05:46:54.289Z,99489.77
2019-01-17T05:49:22.476Z,99504.50
2019-01-17T05:51:50.656Z,99491.82
2019-01-17T05:54:18.849Z,99494.56
2019-01-17T05:56:47.032Z,99500.77
2019-01-17T05:59:15.226Z,99502.13
2019-01-17T06:01:43.414Z,99502.59
2019-01-17T06:04:11.604Z,99506.81
2019-01-17T06:06:39.787Z,99509.43
2019-01-17T06:09:48.089Z,99509.43
2019-01-17T06:12:16.270Z,99500.95
2019-01-17T06:14:44.459Z,99498.34
2019-01-17T06:17:12.637Z,99506.66
2019-01-17T06:19:40.835Z,99509.16
2019-01-17T06:22:09.020Z,99504.73
2019-01-17T06:24:37.210Z,99499.71
2019-01-17T06:27:05.401Z,99499.80
2019-01-17T06:29:33.598Z,99501.39
2019-01-17T06:32:01.783Z,99512.95
2019-01-17T06:34:29.977Z,99489.05
2019-01-17T06:36:58.157Z,99495.81
2019-01-17T06:39:26.348Z,99493.98
2019-01-17T06:42:13.959Z,99488.71
2019-01-17T06:44:42.149Z,99496.01
2019-01-17T06:47:10.329Z,99499.06
2019-01-17T06:49:38.517Z,99501.93
2019-01-17T06:52:06.695Z,99483.30
2019-01-17T06:54:34.908Z,99490.84
2019-01-17T06:57:03.087Z,99488.00
2019-01-17T06:59:31.266Z,99489.72
2019-01-17T07:01:59.459Z,99494.95
2019-01-17T07:04:27.642Z,99503.42
2019-01-17T07:06:55.836Z,99506.51
2019-01-17T07:09:24.020Z,99504.45
2019-01-17T07:11:52.217Z,99510.65
2019-01-17T07:14:20.403Z,99506.41
2019-01-17T07:16:48.596Z,99504.83
2019-01-17T07:19:16.774Z,99503.11
2019-01-17T07:21:44.971Z,99504.48
2019-01-17T07:24:13.150Z,99489.30
2019-01-17T07:27:00.462Z,99495.47
2019-01-17T07:29:28.641Z,99493.07
2019-01-17T07:31:56.832Z,99496.38
2019-01-17T07:34:25.013Z,99502.33
2019-01-17T07:36:53.208Z,99497.09
2019-01-17T07:39:21.392Z,99511.02
2019-01-17T07:42:08.719Z,99508.06
2019-01-17T07:44:55.989Z,99514.35
2019-01-17T07:47:24.179Z,99518.47
2019-01-17T07:52:39.610Z,99517.44
2019-01-17T07:58:21.987Z,99518.80
2019-01-17T08:00:50.163Z,99532.05
2019-01-17T08:03:18.357Z,99544.64
2019-01-17T08:05:46.542Z,99526.47
2019-01-17T08:08:14.736Z,99535.05
2019-01-17T08:10:42.913Z,99538.47
2019-01-17T08:13:11.106Z,99534.38
2019-01-17T08:15:39.283Z,99533.73
2019-01-17T08:18:07.491Z,99540.48
2019-01-17T08:20:55.037Z,99532.13
2019-01-17T08:23:23.612Z,99543.45
2019-01-17T08:25:54.277Z,99536.59
2019-01-17T08:28:21.706Z,99539.33
2019-01-17T08:31:09.254Z,99545.29
2019-01-17T08:33:56.568Z,99535.13
2019-01-17T08:39:17.486Z,99545.29
2019-01-17T08:41:45.664Z,99535.13
2019-01-17T08:44:13.854Z,99548.40
2019-01-17T08:46:42.028Z,99534.68
2019-01-17T08:49:10.278Z,99533.99
2019-01-17T08:51:38.462Z,99523.27
2019-01-17T08:54:06.649Z,99542.22
2019-01-17T08:56:34.824Z,99541.31
2019-01-17T08:59:03.020Z,99552.56
2019-01-17T09:01:31.201Z,99550.40
2019-01-17T09:03:59.395Z,99559.66
2019-01-17T09:06:27.573Z,99558.53
2019-01-17T09:08:55.771Z,99553.27
2019-01-17T09:11:23.951Z,99566.20
2019-01-17T09:13:52.150Z,99575.68
2019-01-17T09:16:20.328Z,99561.18
2019-01-17T09:19:07.944Z,99561.75
2019-01-17T09:21:36.125Z,99566.55
2019-01-17T09:24:04.316Z,99563.50
2019-01-17T09:26:32.507Z,99556.30
2019-01-17T09:29:00.703Z,99558.26
2019-01-17T09:31:28.876Z,99558.72
2019-01-17T09:33:57.069Z,99556.09
2019-01-17T09:36:25.265Z,99549.69
2019-01-17T09:38:53.427Z,99544.66
2019-01-17T09:41:21.617Z,99547.76
2019-01-17T09:43:49.799Z,99546.03
2019-01-17T09:46:17.987Z,99556.81
2019-01-17T09:48:46.164Z,99557.18
2019-01-17T09:51:54.473Z,99555.22
2019-01-17T09:54:22.684Z,99563.24
2019-01-17T09:56:50.873Z,99561.63
2019-01-17T09:59:19.053Z,99570.78
2019-01-17T10:01:47.237Z,99550.98
2019-01-17T10:04:15.421Z,99551.09
2019-01-17T10:06:43.625Z,99545.73
2019-01-17T10:09:51.927Z,99553.97
2019-01-17T10:12:20.112Z,99570.55
2019-01-17T10:14:48.292Z,99550.75
2019-01-17T10:17:56.603Z,99543.53
2019-01-17T10:27:04.964Z,99545.10
2019-01-17T10:30:11.945Z,99536.66
2019-01-17T10:33:20.259Z,99544.89
2019-01-17T10:39:28.575Z,99539.96
2019-01-17T10:42:36.953Z,99529.78
2019-01-17T10:45:43.937Z,99544.79
2019-01-17T10:48:52.295Z,99534.13
2019-01-17T10:55:00.534Z,99531.75
2019-01-17T10:58:07.525Z,99537.49
2019-01-17T11:01:14.501Z,99517.67
2019-01-17T11:04:21.494Z,99521.83
2019-01-17T11:10:29.693Z,99510.69
2019-01-17T11:13:37.968Z,99503.04
2019-01-17T11:16:45.039Z,99509.45
2019-01-17T11:19:53.349Z,99513.56
2019-01-17T11:23:00.342Z,99506.91
2019-01-17T11:26:07.326Z,99509.44
2019-01-17T11:29:15.645Z,99496.27
2019-01-17T11:32:22.610Z,99501.66
2019-01-17T11:35:29.615Z,99495.10
2019-01-17T11:44:39.142Z,99487.21
2019-01-17T11:50:46.783Z,99478.50
2019-01-17T11:53:53.785Z,99482.16
2019-01-17T12:03:02.255Z,99466.91
2019-01-17T12:05:31.261Z,99474.20
2019-01-17T12:07:59.437Z,99485.34
2019-01-17T12:10:27.629Z,99476.23
2019-01-17T12:15:44.690Z,99470.53
2019-01-17T12:18:12.865Z,99465.26
2019-01-17T12:20:41.065Z,99469.66
2019-01-17T12:23:09.244Z,99471.42
2019-01-17T12:25:37.450Z,99470.08
2019-01-17T12:28:05.630Z,99467.80
2019-01-17T12:30:33.829Z,99466.83
2019-01-17T12:33:02.011Z,99463.75
2019-01-17T12:35:30.206Z,99466.41
2019-01-17T12:37:58.386Z,99466.77
2019-01-17T12:40:26.575Z,99458.72
2019-01-17T12:42:54.751Z,99458.72
2019-01-17T12:45:22.941Z,99455.19
2019-01-17T12:47:51.131Z,99463.92
2019-01-17T12:50:19.304Z,99462.23
2019-01-17T12:52:47.507Z,99472.78
2019-01-17T12:55:15.690Z,99478.29
2019-01-17T12:57:43.891Z,99478.86
2019-01-17T13:03:13.516Z,99477.86
2019-01-17T13:05:41.692Z,99475.79
2019-01-17T13:08:09.885Z,99478.19
2019-01-17T13:10:38.068Z,99485.05
2019-01-17T13:13:06.262Z,99472.80
2019-01-17T13:15:34.449Z,99474.77
2019-01-17T13:18:02.644Z,99481.50
2019-01-17T13:20:30.825Z,99465.72
2019-01-17T13:23:18.392Z,99465.94
2019-01-17T13:25:46.566Z,99469.95
2019-01-17T13:28:14.760Z,99457.38
2019-01-17T13:30:42.938Z,99462.16
2019-01-17T13:33:11.132Z,99466.64
2019-01-17T13:35:39.316Z,99470.51
2019-01-17T13:38:07.504Z,99474.41
2019-01-17T13:40:35.686Z,99480.24
2019-01-17T13:43:03.888Z,99472.00
2019-01-17T13:45:32.061Z,99465.61
2019-01-17T13:48:00.261Z,99469.38
2019-01-17T13:50:28.439Z,99467.19
2019-01-17T13:52:56.629Z,99470.74
2019-01-17T13:55:24.811Z,99475.77
2019-01-17T13:57:53.010Z,99473.13
2019-01-17T14:03:35.584Z,99472.31
2019-01-17T14:06:03.764Z,99486.17
2019-01-17T14:08:31.954Z,99478.50
2019-01-17T14:11:00.143Z,99489.95
2019-01-17T14:13:28.340Z,99490.30
2019-01-17T14:15:56.514Z,99485.81
2019-01-17T14:18:27.977Z,99497.70
2019-01-17T14:20:54.601Z,99494.60
2019-01-17T14:23:22.792Z,99500.44
2019-01-17T14:25:50.968Z,99498.16
2019-01-17T14:28:19.164Z,99498.72
2019-01-17T14:30:47.342Z,99499.28
2019-01-17T14:33:15.586Z,99504.19
2019-01-17T14:35:43.758Z,99518.02
2019-01-17T14:38:11.933Z,99523.40
2019-01-17T14:40:40.125Z,99532.33
2019-01-17T14:43:08.302Z,99536.86
2019-01-17T14:45:36.488Z,99538.77
2019-01-17T14:51:05.998Z,99543.52
2019-01-17T14:53:34.223Z,99546.83
2019-01-17T14:56:02.408Z,99554.12
2019-01-17T14:58:30.590Z,99553.88
2019-01-17T15:00:58.860Z,99559.79
2019-01-17T15:03:27.036Z,99562.19
2019-01-17T15:05:55.232Z,99560.69
2019-01-17T15:08:23.414Z,99568.27
2019-01-17T15:10:51.606Z,99577.95
2019-01-17T15:13:19.789Z,99578.64
2019-01-17T15:15:47.980Z,99581.98
2019-01-17T15:18:16.163Z,99578.80
2019-01-17T15:20:44.353Z,99586.34
2019-01-17T15:23:12.532Z,99599.06
2019-01-17T15:25:40.725Z,99603.21
2019-01-17T15:28:08.907Z,99601.62
2019-01-17T15:30:37.100Z,99600.16
2019-01-17T15:33:05.289Z,99607.70
2019-01-17T15:35:33.479Z,99610.16
2019-01-17T15:38:01.661Z,99615.73
2019-01-17T15:41:09.966Z,99614.58
2019-01-17T15:43:38.144Z,99622.56
2019-01-17T15:48:45.624Z,99627.27
2019-01-17T15:51:26.659Z,99623.93
2019-01-17T15:53:54.840Z,99627.83
2019-01-17T15:56:23.041Z,99632.50
2019-01-17T15:58:51.212Z,99630.44
2019-01-17T16:01:19.408Z,99633.61
2019-01-17T16:03:47.610Z,99635.63
2019-01-17T16:06:15.796Z,99641.63
2019-01-17T16:08:43.982Z,99645.95
2019-01-17T16:11:12.177Z,99657.56
2019-01-17T16:13:40.416Z,99651.39
2019-01-17T16:16:08.664Z,99658.72
2019-01-17T16:18:36.834Z,99654.35
2019-01-17T16:21:05.008Z,99662.78
2019-01-17T16:23:33.210Z,99672.38
2019-01-17T16:26:01.376Z,99669.94
2019-01-17T16:28:29.573Z,99677.47
2019-01-17T16:30:57.757Z,99671.80
2019-01-17T16:33:25.957Z,99675.46
2019-01-17T16:38:41.373Z,99690.87
2019-01-17T16:41:09.558Z,99693.77
2019-01-17T16:43:37.747Z,99691.45
2019-01-17T16:46:05.927Z,99689.05
2019-01-17T16:48:34.122Z,99693.91
2019-01-17T16:51:21.666Z,99701.39
2019-01-17T16:53:49.859Z,99701.17
2019-01-17T16:56:18.037Z,99716.84
2019-01-17T17:01:20.019Z,99718.63
2019-01-17T17:03:48.218Z,99724.98
2019-01-17T17:06:16.386Z,99719.84
2019-01-17T17:08:44.586Z,99727.91
2019-01-17T17:16:34.213Z,99727.66
2019-01-17T17:19:02.404Z,99729.99
2019-01-17T17:21:30.592Z,99730.80
2019-01-17T17:23:58.784Z,99737.58
2019-01-17T17:26:26.965Z,99735.58
2019-01-17T17:28:55.160Z,99738.80
2019-01-17T17:31:43.949Z,99742.91
2019-01-17T17:34:12.367Z,99747.01
2019-01-17T17:36:40.548Z,99753.45
2019-01-17T17:39:48.859Z,99758.44
2019-01-17T17:42:17.035Z,99756.92
2019-01-17T17:44:45.230Z,99760.13
2019-01-17T17:47:13.413Z,99763.45
2019-01-17T17:52:16.616Z,99761.52
2019-01-17T17:54:44.808Z,99755.78
2019-01-17T17:57:12.984Z,99764.06
2019-01-17T17:59:41.178Z,99761.80
2019-01-17T18:04:58.232Z,99779.41
2019-01-17T18:07:26.411Z,99773.48
2019-01-17T18:09:54.605Z,99779.89
2019-01-17T18:12:22.791Z,99782.22
2019-01-17T18:14:50.978Z,99785.66
2019-01-17T18:17:19.158Z,99779.37
2019-01-17T18:22:21.482Z,99799.04
2019-01-17T18:24:49.690Z,99798.17
2019-01-17T18:27:17.863Z,99808.98
2019-01-17T18:29:46.040Z,99823.32
2019-01-17T18:32:14.234Z,99829.53
2019-01-17T18:34:42.411Z,99833.86
2019-01-17T18:37:10.608Z,99842.10
2019-01-17T18:39:38.792Z,99847.87
2019-01-17T18:42:06.982Z,99859.30
2019-01-17T18:44:35.159Z,99865.58
2019-01-17T18:47:03.350Z,99853.28
2019-01-17T18:49:31.551Z,99855.97
2019-01-17T18:51:59.723Z,99866.98
2019-01-17T18:54:27.902Z,99869.22
2019-01-17T18:56:56.090Z,99874.37
2019-01-17T18:59:24.269Z,99885.69
2019-01-17T19:01:52.551Z,99894.81
2019-01-17T19:04:20.799Z,99903.56
2019-01-17T19:06:48.979Z,99915.03
2019-01-17T19:09:17.187Z,99921.58
2019-01-17T19:11:45.383Z,99924.31
2019-01-17T19:14:13.653Z,99930.55
2019-01-17T19:16:41.822Z,99931.92
2019-01-17T19:19:10.000Z,99934.47
2019-01-17T19:21:38.188Z,99936.46
2019-01-17T19:24:06.364Z,99941.92
2019-01-17T19:26:34.559Z,99949.66
2019-01-17T19:29:02.736Z,99953.50
2019-01-17T19:31:30.958Z,99951.67
2019-01-17T19:33:59.136Z,99956.72
2019-01-17T19:36:27.330Z,99951.25
2019-01-17T19:38:55.513Z,99955.59
2019-01-17T19:41:23.713Z,99965.41
2019-01-17T19:43:51.887Z,99963.18
2019-01-17T19:46:20.081Z,99960.69
2019-01-17T19:48:48.278Z,99967.41
2019-01-17T19:51:16.473Z,99974.60
2019-01-17T19:53:44.656Z,99984.75
2019-01-17T19:56:12.870Z,99985.06
2019-01-17T19:58:41.059Z,99992.98
2019-01-17T20:01:09.247Z,100002.27
2019-01-17T20:03:37.441Z,100009.01
2019-01-17T20:06:05.626Z,100020.16
2019-01-17T20:08:33.815Z,100021.92
2019-01-17T20:11:02.001Z,100021.97
2019-01-17T20:13:30.197Z,100027.38
2019-01-17T20:15:58.383Z,100055.50
2019-01-17T20:18:26.581Z,100086.39
2019-01-17T20:20:54.758Z,100090.92
2019-01-17T20:23:22.950Z,100101.80
2019-01-17T20:25:51.131Z,100116.38
2019-01-17T20:28:19.333Z,100123.58
2019-01-17T20:30:47.514Z,100135.42
2019-01-17T20:33:15.707Z,100150.94
2019-01-17T20:35:43.887Z,100162.05
2019-01-17T20:38:12.091Z,100168.56
2019-01-17T20:40:40.282Z,100168.02
2019-01-17T20:43:08.477Z,100176.10
2019-01-17T20:45:36.666Z,100197.66
2019-01-17T20:48:04.928Z,100200.63
2019-01-17T20:50:33.118Z,100207.83
2019-01-17T20:53:01.304Z,100217.55
2019-01-17T20:55:29.490Z,100229.70
2019-01-17T20:57:57.693Z,100243.71
2019-01-17T21:01:04.840Z,100255.17
2019-01-17T21:03:33.032Z,100268.29
2019-01-17T21:06:01.221Z,100280.66
2019-01-17T21:08:29.412Z,100285.64
2019-01-17T21:10:57.592Z,100304.84
2019-01-17T21:13:25.792Z,100317.96
2019-01-17T21:15:54.161Z,100322.34
2019-01-17T21:18:22.341Z,100335.66
2019-01-17T21:20:50.523Z,100341.05
2019-01-17T21:23:18.718Z,100345.14
2019-01-17T21:25:46.897Z,100351.42
2019-01-17T21:28:15.103Z,100359.90
2019-01-17T21:30:43.293Z,100370.83
2019-01-17T21:33:30.858Z,100380.89
2019-01-17T21:35:59.038Z,100388.45
2019-01-17T21:38:27.245Z,100402.34
2019-01-17T21:40:55.431Z,100410.77
2019-01-17T21:43:23.629Z,100417.59
2019-01-17T21:45:51.809Z,100423.66
2019-01-17T21:48:20.002Z,100434.59
2019-01-17T21:50:48.188Z,100447.38
2019-01-17T21:53:16.392Z,100458.00
2019-01-17T21:55:44.573Z,100457.47
2019-01-17T21:58:12.757Z,100463.70
2019-01-17T22:00:40.948Z,100467.50
2019-01-17T22:03:09.129Z,100477.91
2019-01-17T22:05:37.334Z,100493.45
2019-01-17T22:08:05.522Z,100489.93
2019-01-17T22:10:33.718Z,100501.59
2019-01-17T22:13:01.967Z,100507.05
2019-01-17T22:15:30.158Z,100520.14
2019-01-17T22:17:58.341Z,100529.11
2019-01-17T22:20:26.539Z,100537.58
2019-01-17T22:22:54.721Z,100545.77
2019-01-17T22:25:22.914Z,100551.23
2019-01-17T22:28:31.214Z,100561.05
2019-01-17T22:30:59.417Z,100564.83
2019-01-17T22:33:27.600Z,100562.89
2019-01-17T22:35:55.792Z,100580.08
2019-01-17T22:38:23.978Z,100589.10
2019-01-17T22:43:27.255Z,100605.47
2019-01-17T22:45:55.450Z,100603.87
2019-01-17T22:48:23.627Z,100607.75
2019-01-17T22:50:51.825Z,100609.72
2019-01-17T22:53:20.004Z,100619.33
2019-01-17T22:55:48.207Z,100626.39
2019-01-17T22:58:16.391Z,100625.02
2019-01-17T23:01:24.693Z,100633.20
2019-01-17T23:03:52.877Z,100644.12
2019-01-17T23:06:21.068Z,100648.50
2019-01-17T23:08:49.249Z,100652.59
2019-01-17T23:11:17.445Z,100658.04
2019-01-17T23:13:45.623Z,100662.97
2019-01-17T23:16:13.819Z,100674.18
2019-01-17T23:18:42.003Z,100675.54
2019-01-17T23:21:10.192Z,100686.45
2019-01-17T23:23:38.493Z,100697.64
2019-01-17T23:26:06.658Z,100697.94
2019-01-17T23:28:34.830Z,100698.77
2019-01-17T23:31:03.036Z,100711.61
2019-01-17T23:33:31.215Z,100712.98
2019-01-17T23:35:59.413Z,100714.34
2019-01-17T23:38:27.594Z,100712.98
2019-01-17T23:40:55.793Z,100720.88
2019-01-17T23:43:23.976Z,100724.97
2019-01-17T23:45:52.167Z,100729.88
2019-01-17T23:48:20.350Z,100738.63
2019-01-17T23:50:48.551Z,100741.36
2019-01-17T23:53:16.731Z,100744.66
2019-01-17T23:55:44.929Z,100756.10
2019-01-17T23:58:13.108Z,100758.58
